Hovedside
METAR-TAF:

METAR-TAF

Lufthavner :

Kramfors lufthavn

Kramfors, Sverige

breddegrad: 63-03N, lengdegrad: 017-46E, høyde over havet: 10 m

Gjeldene værobservasjon

Denne rapporten ble laget for 38 minutter siden, klokken 19:50 UTC
Vind 3 kt fra Nordvest
Temperatur -5°C
Luftfuktighet 100%
Trykk 1025 hPa
Sikt: 2200 m
lett snø

METAR: ESNK 181950Z AUTO 31003KT 2200 -SN FEW003/// SCT009/// BKN017/// M05/M05 Q1025

Tid: 21:28 (20:28 UTC)

Varsel

Denne rapporten ble laget for 2 timer og 2 minutter siden, klokken 18:26 UTC
Varsel gyldig fra 18. klokken 18 UTC til 18. klokken 20 UTC
Vind 2 kt fra Nordvest
Sikt 10 km eller mer
Spredte skyer i en høyde av 1000 ft
Brutte skyer i en høyde av 2000 ft
lett snø
Sannsynlighet 40%
fra 18. klokken 18 UTC til 18. klokken 20 UTC
Sikt: 2500 m
Brutte skyer i en høyde av 800 ft
(lett) kornsnø

TAF: ESNK 181826Z 1818/1820 32002KT 9999 -SN SCT010 BKN020 PROB40 1818/1820 2500 -SG BKN008

Værobservasjoner og værvarsel for over 4000 flyplasser (METAR- og TAF-rapporter).

Tilgjengelige stasjoner er representert av de røde og gule prikkene på kartet.

Hold musepekeren over prikken for å se navnet på stasjonen.

Klikk så for å se værobservasjoner og -varsler.

For å forandre kartet kan du klikke på den grønne knappen med svart kryss for å zoome inn, på den grønne knappen med strek for å zoome ut, eller på de grønne pilene for å se tilstøtende kart.


METAR-TAF: